sensor_id;sensor_type;location;lat;lon;timestamp;temperature;humidity
51863;DHT22;37900;52.996;6.278;2022-09-03T00:00:19;19.80;91.40
51863;DHT22;37900;52.996;6.278;2022-09-03T00:06:06;19.80;91.40
51863;DHT22;37900;52.996;6.278;2022-09-03T00:09:02;19.80;91.40
51863;DHT22;37900;52.996;6.278;2022-09-03T00:11:45;19.80;91.40
51863;DHT22;37900;52.996;6.278;2022-09-03T00:14:22;19.80;91.40
51863;DHT22;37900;52.996;6.278;2022-09-03T00:17:30;19.80;91.40
51863;DHT22;37900;52.996;6.278;2022-09-03T00:20:03;19.80;91.30
51863;DHT22;37900;52.996;6.278;2022-09-03T00:22:40;19.80;91.60
51863;DHT22;37900;52.996;6.278;2022-09-03T00:25:11;19.80;91.30
51863;DHT22;37900;52.996;6.278;2022-09-03T00:27:39;19.90;91.30
51863;DHT22;37900;52.996;6.278;2022-09-03T00:30:11;19.80;91.30
51863;DHT22;37900;52.996;6.278;2022-09-03T00:32:57;19.80;91.30
51863;DHT22;37900;52.996;6.278;2022-09-03T00:37:59;19.80;91.30
51863;DHT22;37900;52.996;6.278;2022-09-03T00:40:37;19.80;91.30
51863;DHT22;37900;52.996;6.278;2022-09-03T00:45:59;19.80;91.20
51863;DHT22;37900;52.996;6.278;2022-09-03T00:51:50;19.80;91.10
51863;DHT22;37900;52.996;6.278;2022-09-03T00:57:05;19.80;91.10
51863;DHT22;37900;52.996;6.278;2022-09-03T01:00:13;19.80;91.10
51863;DHT22;37900;52.996;6.278;2022-09-03T01:02:57;19.80;91.30
51863;DHT22;37900;52.996;6.278;2022-09-03T01:14:28;19.70;91.00
51863;DHT22;37900;52.996;6.278;2022-09-03T01:22:49;19.80;91.00
51863;DHT22;37900;52.996;6.278;2022-09-03T01:30:39;19.70;90.90
51863;DHT22;37900;52.996;6.278;2022-09-03T01:33:39;19.70;91.20
51863;DHT22;37900;52.996;6.278;2022-09-03T01:44:18;19.70;90.90
51863;DHT22;37900;52.996;6.278;2022-09-03T01:47:01;19.80;90.90
51863;DHT22;37900;52.996;6.278;2022-09-03T01:49:37;19.70;90.90
51863;DHT22;37900;52.996;6.278;2022-09-03T01:55:43;19.70;90.80
51863;DHT22;37900;52.996;6.278;2022-09-03T01:58:30;19.70;90.80
51863;DHT22;37900;52.996;6.278;2022-09-03T02:01:04;19.70;90.80
51863;DHT22;37900;52.996;6.278;2022-09-03T02:03:38;19.70;90.80
51863;DHT22;37900;52.996;6.278;2022-09-03T02:06:06;19.70;90.80
51863;DHT22;37900;52.996;6.278;2022-09-03T02:08:33;19.70;90.80
51863;DHT22;37900;52.996;6.278;2022-09-03T02:10:59;19.70;90.80
51863;DHT22;37900;52.996;6.278;2022-09-03T02:13:37;19.70;90.80
51863;DHT22;37900;52.996;6.278;2022-09-03T02:16:10;19.70;90.80
51863;DHT22;37900;52.996;6.278;2022-09-03T02:18:41;19.70;90.80
51863;DHT22;37900;52.996;6.278;2022-09-03T02:21:07;19.70;90.80
51863;DHT22;37900;52.996;6.278;2022-09-03T02:23:38;19.70;90.80
51863;DHT22;37900;52.996;6.278;2022-09-03T02:26:06;19.70;90.70
51863;DHT22;37900;52.996;6.278;2022-09-03T02:28:33;19.70;90.70
51863;DHT22;37900;52.996;6.278;2022-09-03T02:31:00;19.70;90.70
51863;DHT22;37900;52.996;6.278;2022-09-03T02:33:26;19.70;90.70
51863;DHT22;37900;52.996;6.278;2022-09-03T02:35:52;19.70;90.70
51863;DHT22;37900;52.996;6.278;2022-09-03T02:38:21;19.70;90.70
51863;DHT22;37900;52.996;6.278;2022-09-03T02:40:50;19.70;90.70
51863;DHT22;37900;52.996;6.278;2022-09-03T02:45:56;19.70;90.70
51863;DHT22;37900;52.996;6.278;2022-09-03T02:48:24;19.70;90.70
51863;DHT22;37900;52.996;6.278;2022-09-03T02:50:50;19.70;90.70
51863;DHT22;37900;52.996;6.278;2022-09-03T02:53:15;19.70;90.70
51863;DHT22;37900;52.996;6.278;2022-09-03T02:55:41;19.70;90.70
51863;DHT22;37900;52.996;6.278;2022-09-03T02:58:07;19.70;90.70
51863;DHT22;37900;52.996;6.278;2022-09-03T03:00:34;19.70;90.60
51863;DHT22;37900;52.996;6.278;2022-09-03T03:03:00;19.70;90.60
51863;DHT22;37900;52.996;6.278;2022-09-03T03:05:48;19.70;90.60
51863;DHT22;37900;52.996;6.278;2022-09-03T03:08:15;19.70;90.60
51863;DHT22;37900;52.996;6.278;2022-09-03T03:10:42;19.70;90.60
51863;DHT22;37900;52.996;6.278;2022-09-03T03:13:10;19.60;90.60
51863;DHT22;37900;52.996;6.278;2022-09-03T03:15:35;19.60;90.60
51863;DHT22;37900;52.996;6.278;2022-09-03T03:18:01;19.60;90.60
51863;DHT22;37900;52.996;6.278;2022-09-03T03:20:27;19.60;90.60
51863;DHT22;37900;52.996;6.278;2022-09-03T03:22:53;19.60;90.60
51863;DHT22;37900;52.996;6.278;2022-09-03T03:25:19;19.70;90.60
51863;DHT22;37900;52.996;6.278;2022-09-03T03:27:45;19.70;90.60
51863;DHT22;37900;52.996;6.278;2022-09-03T03:30:11;19.60;90.60
51863;DHT22;37900;52.996;6.278;2022-09-03T03:32:38;19.60;90.60
51863;DHT22;37900;52.996;6.278;2022-09-03T03:35:05;19.60;90.60
51863;DHT22;37900;52.996;6.278;2022-09-03T03:37:32;19.60;90.50
51863;DHT22;37900;52.996;6.278;2022-09-03T03:39:57;19.60;90.50
51863;DHT22;37900;52.996;6.278;2022-09-03T03:42:23;19.60;90.50
51863;DHT22;37900;52.996;6.278;2022-09-03T03:44:49;19.60;90.50
51863;DHT22;37900;52.996;6.278;2022-09-03T03:47:15;19.60;90.50
51863;DHT22;37900;52.996;6.278;2022-09-03T03:49:42;19.60;90.50
51863;DHT22;37900;52.996;6.278;2022-09-03T03:52:08;19.70;90.50
51863;DHT22;37900;52.996;6.278;2022-09-03T03:54:34;19.60;90.50
51863;DHT22;37900;52.996;6.278;2022-09-03T03:56:59;19.60;90.50
51863;DHT22;37900;52.996;6.278;2022-09-03T03:59:25;19.60;90.50
51863;DHT22;37900;52.996;6.278;2022-09-03T04:01:53;19.60;90.40
51863;DHT22;37900;52.996;6.278;2022-09-03T04:04:19;19.60;90.50
51863;DHT22;37900;52.996;6.278;2022-09-03T04:06:45;19.60;90.50
51863;DHT22;37900;52.996;6.278;2022-09-03T04:09:10;19.60;90.50
51863;DHT22;37900;52.996;6.278;2022-09-03T04:11:36;19.60;90.50
51863;DHT22;37900;52.996;6.278;2022-09-03T04:14:03;19.60;90.40
51863;DHT22;37900;52.996;6.278;2022-09-03T04:16:29;19.60;90.40
51863;DHT22;37900;52.996;6.278;2022-09-03T04:18:56;19.60;90.40
51863;DHT22;37900;52.996;6.278;2022-09-03T04:21:24;19.60;90.40
51863;DHT22;37900;52.996;6.278;2022-09-03T04:23:51;19.60;90.40
51863;DHT22;37900;52.996;6.278;2022-09-03T04:26:19;19.60;90.40
51863;DHT22;37900;52.996;6.278;2022-09-03T04:28:46;19.60;90.40
51863;DHT22;37900;52.996;6.278;2022-09-03T04:31:13;19.60;90.40
51863;DHT22;37900;52.996;6.278;2022-09-03T04:33:39;19.70;90.40
51863;DHT22;37900;52.996;6.278;2022-09-03T04:36:15;19.60;90.40
51863;DHT22;37900;52.996;6.278;2022-09-03T04:38:43;19.60;90.40
51863;DHT22;37900;52.996;6.278;2022-09-03T04:41:12;19.60;90.40
51863;DHT22;37900;52.996;6.278;2022-09-03T04:43:39;19.50;90.30
51863;DHT22;37900;52.996;6.278;2022-09-03T04:46:07;19.60;90.30
51863;DHT22;37900;52.996;6.278;2022-09-03T04:48:34;19.50;90.30
51863;DHT22;37900;52.996;6.278;2022-09-03T04:51:08;19.60;90.30
51863;DHT22;37900;52.996;6.278;2022-09-03T04:53:37;19.50;90.30
51863;DHT22;37900;52.996;6.278;2022-09-03T04:56:12;19.60;90.30
51863;DHT22;37900;52.996;6.278;2022-09-03T04:58:39;19.60;90.30
51863;DHT22;37900;52.996;6.278;2022-09-03T05:01:15;19.50;90.30
51863;DHT22;37900;52.996;6.278;2022-09-03T05:03:41;19.60;90.30
51863;DHT22;37900;52.996;6.278;2022-09-03T05:06:07;19.60;90.30
51863;DHT22;37900;52.996;6.278;2022-09-03T05:08:34;19.50;90.30
51863;DHT22;37900;52.996;6.278;2022-09-03T05:11:01;19.50;90.20
51863;DHT22;37900;52.996;6.278;2022-09-03T05:13:27;19.50;90.20
51863;DHT22;37900;52.996;6.278;2022-09-03T05:16:00;19.50;90.30
51863;DHT22;37900;52.996;6.278;2022-09-03T05:18:27;19.50;90.20
51863;DHT22;37900;52.996;6.278;2022-09-03T05:23:26;19.50;90.20
51863;DHT22;37900;52.996;6.278;2022-09-03T05:26:03;19.50;90.20
51863;DHT22;37900;52.996;6.278;2022-09-03T05:28:34;19.50;90.20
51863;DHT22;37900;52.996;6.278;2022-09-03T05:31:10;19.50;90.30
51863;DHT22;37900;52.996;6.278;2022-09-03T05:33:49;19.50;90.10
51863;DHT22;37900;52.996;6.278;2022-09-03T05:36:17;19.50;90.30
51863;DHT22;37900;52.996;6.278;2022-09-03T05:38:44;19.50;90.20
51863;DHT22;37900;52.996;6.278;2022-09-03T05:41:11;19.50;90.20
51863;DHT22;37900;52.996;6.278;2022-09-03T05:43:37;19.50;90.20
51863;DHT22;37900;52.996;6.278;2022-09-03T05:46:09;19.50;90.30
51863;DHT22;37900;52.996;6.278;2022-09-03T05:48:37;19.50;90.20
51863;DHT22;37900;52.996;6.278;2022-09-03T05:53:30;19.50;90.20
51863;DHT22;37900;52.996;6.278;2022-09-03T05:56:00;19.50;90.20
51863;DHT22;37900;52.996;6.278;2022-09-03T05:58:35;19.50;90.20
51863;DHT22;37900;52.996;6.278;2022-09-03T06:01:21;19.50;90.20
51863;DHT22;37900;52.996;6.278;2022-09-03T06:03:53;19.50;90.20
51863;DHT22;37900;52.996;6.278;2022-09-03T06:06:20;19.50;90.20
51863;DHT22;37900;52.996;6.278;2022-09-03T06:09:10;19.50;90.20
51863;DHT22;37900;52.996;6.278;2022-09-03T06:11:38;19.50;90.20
51863;DHT22;37900;52.996;6.278;2022-09-03T06:14:06;19.50;90.30
51863;DHT22;37900;52.996;6.278;2022-09-03T06:16:35;19.50;90.30
51863;DHT22;37900;52.996;6.278;2022-09-03T06:19:03;19.50;90.30
51863;DHT22;37900;52.996;6.278;2022-09-03T06:21:31;19.50;90.30
51863;DHT22;37900;52.996;6.278;2022-09-03T06:23:57;19.50;90.30
51863;DHT22;37900;52.996;6.278;2022-09-03T06:26:24;19.50;90.30
51863;DHT22;37900;52.996;6.278;2022-09-03T06:28:50;19.50;90.30
51863;DHT22;37900;52.996;6.278;2022-09-03T06:31:21;19.50;90.40
51863;DHT22;37900;52.996;6.278;2022-09-03T06:33:47;19.60;90.40
51863;DHT22;37900;52.996;6.278;2022-09-03T06:36:15;19.50;90.40
51863;DHT22;37900;52.996;6.278;2022-09-03T06:38:42;19.50;90.50
51863;DHT22;37900;52.996;6.278;2022-09-03T06:41:13;19.60;90.50
51863;DHT22;37900;52.996;6.278;2022-09-03T06:43:40;19.60;90.50
51863;DHT22;37900;52.996;6.278;2022-09-03T06:46:14;19.60;90.50
51863;DHT22;37900;52.996;6.278;2022-09-03T06:48:41;19.60;90.50
51863;DHT22;37900;52.996;6.278;2022-09-03T06:51:13;19.60;90.60
51863;DHT22;37900;52.996;6.278;2022-09-03T06:53:51;19.60;90.60
51863;DHT22;37900;52.996;6.278;2022-09-03T06:56:19;19.60;90.60
51863;DHT22;37900;52.996;6.278;2022-09-03T06:58:51;19.60;90.60
51863;DHT22;37900;52.996;6.278;2022-09-03T07:01:19;19.60;90.60
51863;DHT22;37900;52.996;6.278;2022-09-03T07:03:46;19.60;90.60
51863;DHT22;37900;52.996;6.278;2022-09-03T07:06:15;19.60;90.60
51863;DHT22;37900;52.996;6.278;2022-09-03T07:08:41;19.60;90.90
51863;DHT22;37900;52.996;6.278;2022-09-03T07:11:10;19.60;90.60
51863;DHT22;37900;52.996;6.278;2022-09-03T07:13:37;19.60;90.60
51863;DHT22;37900;52.996;6.278;2022-09-03T07:16:11;19.60;90.60
51863;DHT22;37900;52.996;6.278;2022-09-03T07:18:37;19.60;90.60
51863;DHT22;37900;52.996;6.278;2022-09-03T07:21:06;19.60;90.60
51863;DHT22;37900;52.996;6.278;2022-09-03T07:23:34;19.60;90.70
51863;DHT22;37900;52.996;6.278;2022-09-03T07:26:00;19.60;90.60
51863;DHT22;37900;52.996;6.278;2022-09-03T07:28:27;19.60;90.50
51863;DHT22;37900;52.996;6.278;2022-09-03T07:30:54;19.50;90.50
51863;DHT22;37900;52.996;6.278;2022-09-03T07:33:25;19.60;90.50
51863;DHT22;37900;52.996;6.278;2022-09-03T07:35:52;19.50;90.50
51863;DHT22;37900;52.996;6.278;2022-09-03T07:38:18;19.60;90.50
51863;DHT22;37900;52.996;6.278;2022-09-03T07:40:44;19.50;90.50
51863;DHT22;37900;52.996;6.278;2022-09-03T07:43:12;19.60;90.60
51863;DHT22;37900;52.996;6.278;2022-09-03T07:45:37;19.50;90.50
51863;DHT22;37900;52.996;6.278;2022-09-03T07:48:04;19.50;90.50
51863;DHT22;37900;52.996;6.278;2022-09-03T07:50:30;19.60;90.50
51863;DHT22;37900;52.996;6.278;2022-09-03T07:53:02;19.60;90.60
51863;DHT22;37900;52.996;6.278;2022-09-03T07:55:28;19.60;90.60
51863;DHT22;37900;52.996;6.278;2022-09-03T07:57:57;19.50;90.80
51863;DHT22;37900;52.996;6.278;2022-09-03T08:00:24;19.60;91.00
51863;DHT22;37900;52.996;6.278;2022-09-03T08:02:53;19.60;91.10
51863;DHT22;37900;52.996;6.278;2022-09-03T08:05:20;19.60;91.20
51863;DHT22;37900;52.996;6.278;2022-09-03T08:07:46;19.60;91.30
51863;DHT22;37900;52.996;6.278;2022-09-03T08:10:13;19.60;91.40
51863;DHT22;37900;52.996;6.278;2022-09-03T08:12:41;19.60;91.50
51863;DHT22;37900;52.996;6.278;2022-09-03T08:15:07;19.60;91.50
51863;DHT22;37900;52.996;6.278;2022-09-03T08:17:32;19.60;91.50
51863;DHT22;37900;52.996;6.278;2022-09-03T08:19:58;19.60;91.50
51863;DHT22;37900;52.996;6.278;2022-09-03T08:22:25;19.60;91.50
51863;DHT22;37900;52.996;6.278;2022-09-03T08:24:51;19.60;91.50
51863;DHT22;37900;52.996;6.278;2022-09-03T08:27:20;19.60;91.50
51863;DHT22;37900;52.996;6.278;2022-09-03T08:29:50;19.60;91.40
51863;DHT22;37900;52.996;6.278;2022-09-03T08:32:16;19.60;91.40
51863;DHT22;37900;52.996;6.278;2022-09-03T08:34:42;19.60;91.40
51863;DHT22;37900;52.996;6.278;2022-09-03T08:37:07;19.60;91.30
51863;DHT22;37900;52.996;6.278;2022-09-03T08:39:34;19.60;91.30
51863;DHT22;37900;52.996;6.278;2022-09-03T08:44:54;19.60;91.20
51863;DHT22;37900;52.996;6.278;2022-09-03T08:49:58;19.60;91.10
51863;DHT22;37900;52.996;6.278;2022-09-03T08:52:32;19.60;91.00
51863;DHT22;37900;52.996;6.278;2022-09-03T08:58:01;19.60;90.70
51863;DHT22;37900;52.996;6.278;2022-09-03T09:00:56;19.60;90.50
51863;DHT22;37900;52.996;6.278;2022-09-03T09:11:47;19.60;89.30
51863;DHT22;37900;52.996;6.278;2022-09-03T09:14:33;19.60;89.30
51863;DHT22;37900;52.996;6.278;2022-09-03T09:17:29;19.60;89.30
51863;DHT22;37900;52.996;6.278;2022-09-03T09:22:40;19.60;89.30
51863;DHT22;37900;52.996;6.278;2022-09-03T09:25:14;19.60;89.40
51863;DHT22;37900;52.996;6.278;2022-09-03T09:27:51;19.60;89.40
51863;DHT22;37900;52.996;6.278;2022-09-03T09:30:19;19.60;89.50
51863;DHT22;37900;52.996;6.278;2022-09-03T09:32:45;19.60;89.40
51863;DHT22;37900;52.996;6.278;2022-09-03T09:35:13;19.60;89.30
51863;DHT22;37900;52.996;6.278;2022-09-03T09:38:06;19.60;89.40
51863;DHT22;37900;52.996;6.278;2022-09-03T09:40:33;19.60;89.30
51863;DHT22;37900;52.996;6.278;2022-09-03T09:45:34;19.50;89.30
51863;DHT22;37900;52.996;6.278;2022-09-03T09:48:00;19.60;89.40
51863;DHT22;37900;52.996;6.278;2022-09-03T09:50:27;19.50;89.30
51863;DHT22;37900;52.996;6.278;2022-09-03T09:53:07;19.50;89.20
51863;DHT22;37900;52.996;6.278;2022-09-03T09:55:55;19.60;89.10
51863;DHT22;37900;52.996;6.278;2022-09-03T09:58:24;19.50;89.10
51863;DHT22;37900;52.996;6.278;2022-09-03T10:01:01;19.50;89.10
51863;DHT22;37900;52.996;6.278;2022-09-03T10:03:31;19.50;89.10
51863;DHT22;37900;52.996;6.278;2022-09-03T10:06:08;19.50;89.00
51863;DHT22;37900;52.996;6.278;2022-09-03T10:09:08;19.50;89.20
51863;DHT22;37900;52.996;6.278;2022-09-03T10:11:37;19.50;89.10
51863;DHT22;37900;52.996;6.278;2022-09-03T10:14:07;19.50;89.20
51863;DHT22;37900;52.996;6.278;2022-09-03T10:16:39;19.50;89.20
51863;DHT22;37900;52.996;6.278;2022-09-03T10:19:15;19.50;89.20
51863;DHT22;37900;52.996;6.278;2022-09-03T10:22:09;19.50;89.20
51863;DHT22;37900;52.996;6.278;2022-09-03T10:24:48;19.50;89.20
51863;DHT22;37900;52.996;6.278;2022-09-03T10:27:17;19.50;89.30
51863;DHT22;37900;52.996;6.278;2022-09-03T10:29:44;19.50;89.30
51863;DHT22;37900;52.996;6.278;2022-09-03T10:37:43;19.50;89.20
51863;DHT22;37900;52.996;6.278;2022-09-03T10:40:35;19.50;89.30
51863;DHT22;37900;52.996;6.278;2022-09-03T10:43:18;19.50;89.30
51863;DHT22;37900;52.996;6.278;2022-09-03T10:45:59;19.50;89.30
51863;DHT22;37900;52.996;6.278;2022-09-03T10:48:49;19.50;89.30
51863;DHT22;37900;52.996;6.278;2022-09-03T10:51:34;19.50;89.30
51863;DHT22;37900;52.996;6.278;2022-09-03T10:57:02;19.50;89.30
51863;DHT22;37900;52.996;6.278;2022-09-03T11:05:37;19.50;89.40
51863;DHT22;37900;52.996;6.278;2022-09-03T11:10:44;19.50;90.00
51863;DHT22;37900;52.996;6.278;2022-09-03T11:13:19;19.50;89.60
51863;DHT22;37900;52.996;6.278;2022-09-03T11:15:53;19.50;89.70
51863;DHT22;37900;52.996;6.278;2022-09-03T11:21:09;19.50;89.60
51863;DHT22;37900;52.996;6.278;2022-09-03T11:23:40;19.50;89.70
51863;DHT22;37900;52.996;6.278;2022-09-03T11:26:10;19.50;89.70
51863;DHT22;37900;52.996;6.278;2022-09-03T11:34:24;19.50;89.90
51863;DHT22;37900;52.996;6.278;2022-09-03T11:37:02;19.50;89.90
51863;DHT22;37900;52.996;6.278;2022-09-03T11:42:02;19.50;90.00
51863;DHT22;37900;52.996;6.278;2022-09-03T11:44:40;19.50;90.00
51863;DHT22;37900;52.996;6.278;2022-09-03T11:47:36;19.50;90.10
51863;DHT22;37900;52.996;6.278;2022-09-03T11:52:46;19.50;90.10
51863;DHT22;37900;52.996;6.278;2022-09-03T11:55:30;19.50;90.20
51863;DHT22;37900;52.996;6.278;2022-09-03T11:58:09;19.50;90.20
51863;DHT22;37900;52.996;6.278;2022-09-03T12:00:36;19.50;90.30
51863;DHT22;37900;52.996;6.278;2022-09-03T12:03:03;19.50;90.30
51863;DHT22;37900;52.996;6.278;2022-09-03T12:05:35;19.50;90.30
51863;DHT22;37900;52.996;6.278;2022-09-03T12:08:35;19.50;90.30
51863;DHT22;37900;52.996;6.278;2022-09-03T12:14:36;19.60;90.50
51863;DHT22;37900;52.996;6.278;2022-09-03T12:17:26;19.60;90.40
51863;DHT22;37900;52.996;6.278;2022-09-03T12:19:54;19.50;90.50
51863;DHT22;37900;52.996;6.278;2022-09-03T12:22:23;19.60;90.50
51863;DHT22;37900;52.996;6.278;2022-09-03T12:24:50;19.50;90.50
51863;DHT22;37900;52.996;6.278;2022-09-03T12:27:21;19.60;90.50
51863;DHT22;37900;52.996;6.278;2022-09-03T12:29:56;19.60;90.60
51863;DHT22;37900;52.996;6.278;2022-09-03T12:32:31;19.50;90.50
51863;DHT22;37900;52.996;6.278;2022-09-03T12:35:22;19.50;90.60
51863;DHT22;37900;52.996;6.278;2022-09-03T12:37:51;19.50;90.50
51863;DHT22;37900;52.996;6.278;2022-09-03T12:40:26;19.50;90.50
51863;DHT22;37900;52.996;6.278;2022-09-03T12:42:53;19.50;90.60
51863;DHT22;37900;52.996;6.278;2022-09-03T12:45:21;19.50;90.60
51863;DHT22;37900;52.996;6.278;2022-09-03T12:47:49;19.60;90.60
51863;DHT22;37900;52.996;6.278;2022-09-03T12:50:18;19.60;90.60
51863;DHT22;37900;52.996;6.278;2022-09-03T12:53:03;19.50;90.60
51863;DHT22;37900;52.996;6.278;2022-09-03T13:01:04;19.50;90.50
51863;DHT22;37900;52.996;6.278;2022-09-03T13:03:47;19.50;90.60
51863;DHT22;37900;52.996;6.278;2022-09-03T13:06:16;19.50;90.50
51863;DHT22;37900;52.996;6.278;2022-09-03T13:08:50;19.50;90.50
51863;DHT22;37900;52.996;6.278;2022-09-03T13:11:20;19.50;90.50
51863;DHT22;37900;52.996;6.278;2022-09-03T13:14:02;19.60;90.60
51863;DHT22;37900;52.996;6.278;2022-09-03T13:17:06;19.50;90.60
51863;DHT22;37900;52.996;6.278;2022-09-03T13:25:14;19.60;90.60
51863;DHT22;37900;52.996;6.278;2022-09-03T13:30:19;19.50;90.60
51863;DHT22;37900;52.996;6.278;2022-09-03T13:35:34;19.50;90.60
51863;DHT22;37900;52.996;6.278;2022-09-03T13:43:38;19.50;90.60
51863;DHT22;37900;52.996;6.278;2022-09-03T13:46:12;19.50;90.60
51863;DHT22;37900;52.996;6.278;2022-09-03T13:48:43;19.60;90.70
51863;DHT22;37900;52.996;6.278;2022-09-03T13:57:17;19.60;90.70
51863;DHT22;37900;52.996;6.278;2022-09-03T14:00:11;19.60;90.70
51863;DHT22;37900;52.996;6.278;2022-09-03T14:08:31;19.60;90.70
51863;DHT22;37900;52.996;6.278;2022-09-03T14:11:45;19.60;90.70
51863;DHT22;37900;52.996;6.278;2022-09-03T14:17:07;19.60;90.70
51863;DHT22;37900;52.996;6.278;2022-09-03T14:22:37;19.60;90.70
51863;DHT22;37900;52.996;6.278;2022-09-03T14:25:12;19.60;90.70
51863;DHT22;37900;52.996;6.278;2022-09-03T14:27:39;19.60;90.80
51863;DHT22;37900;52.996;6.278;2022-09-03T14:30:54;19.60;90.80
51863;DHT22;37900;52.996;6.278;2022-09-03T14:33:03;19.60;90.80
51863;DHT22;37900;52.996;6.278;2022-09-03T14:41:09;19.60;90.80
51863;DHT22;37900;52.996;6.278;2022-09-03T14:44:04;19.60;90.80
51863;DHT22;37900;52.996;6.278;2022-09-03T14:46:39;19.60;90.90
51863;DHT22;37900;52.996;6.278;2022-09-03T14:58:33;19.70;91.00
51863;DHT22;37900;52.996;6.278;2022-09-03T15:03:53;19.60;90.80
51863;DHT22;37900;52.996;6.278;2022-09-03T15:06:36;19.70;90.60
51863;DHT22;37900;52.996;6.278;2022-09-03T15:11:46;19.70;90.30
51863;DHT22;37900;52.996;6.278;2022-09-03T15:14:25;19.70;90.10
51863;DHT22;37900;52.996;6.278;2022-09-03T15:17:20;19.70;90.00
51863;DHT22;37900;52.996;6.278;2022-09-03T15:33:45;19.70;87.90
51863;DHT22;37900;52.996;6.278;2022-09-03T15:36:16;19.70;87.20
51863;DHT22;37900;52.996;6.278;2022-09-03T15:39:08;19.70;87.40
51863;DHT22;37900;52.996;6.278;2022-09-03T15:44:15;19.70;87.00
51863;DHT22;37900;52.996;6.278;2022-09-03T15:46:58;19.70;86.70
51863;DHT22;37900;52.996;6.278;2022-09-03T15:52:14;19.70;86.20
51863;DHT22;37900;52.996;6.278;2022-09-03T15:57:36;19.70;85.50
51863;DHT22;37900;52.996;6.278;2022-09-03T16:00:11;19.70;85.50
51863;DHT22;37900;52.996;6.278;2022-09-03T16:08:22;19.70;85.60
51863;DHT22;37900;52.996;6.278;2022-09-03T16:16:05;19.70;87.50
51863;DHT22;37900;52.996;6.278;2022-09-03T16:18:39;19.80;88.20
51863;DHT22;37900;52.996;6.278;2022-09-03T16:21:27;19.70;88.80
51863;DHT22;37900;52.996;6.278;2022-09-03T16:24:04;19.80;89.60
51863;DHT22;37900;52.996;6.278;2022-09-03T16:26:39;19.80;89.90
51863;DHT22;37900;52.996;6.278;2022-09-03T16:29:15;19.80;89.90
51863;DHT22;37900;52.996;6.278;2022-09-03T16:31:56;19.80;89.90
51863;DHT22;37900;52.996;6.278;2022-09-03T16:37:29;19.80;89.70
51863;DHT22;37900;52.996;6.278;2022-09-03T16:56:06;19.80;88.50
51863;DHT22;37900;52.996;6.278;2022-09-03T17:04:11;19.90;88.80
51863;DHT22;37900;52.996;6.278;2022-09-03T17:15:16;19.90;89.20
51863;DHT22;37900;52.996;6.278;2022-09-03T17:21:15;19.90;89.20
51863;DHT22;37900;52.996;6.278;2022-09-03T17:26:21;19.80;89.20
51863;DHT22;37900;52.996;6.278;2022-09-03T17:34:33;19.80;89.20
51863;DHT22;37900;52.996;6.278;2022-09-03T17:43:17;19.80;89.10
51863;DHT22;37900;52.996;6.278;2022-09-03T17:45:51;19.80;89.10
51863;DHT22;37900;52.996;6.278;2022-09-03T17:48:46;19.90;89.20
51863;DHT22;37900;52.996;6.278;2022-09-03T17:51:43;19.80;89.00
51863;DHT22;37900;52.996;6.278;2022-09-03T18:05:26;19.90;89.00
51863;DHT22;37900;52.996;6.278;2022-09-03T18:13:42;19.90;89.10
51863;DHT22;37900;52.996;6.278;2022-09-03T18:18:50;19.80;89.20
51863;DHT22;37900;52.996;6.278;2022-09-03T18:21:20;19.90;89.20
51863;DHT22;37900;52.996;6.278;2022-09-03T18:27:09;19.90;89.20
51863;DHT22;37900;52.996;6.278;2022-09-03T18:30:05;19.90;89.20
51863;DHT22;37900;52.996;6.278;2022-09-03T18:32:50;19.90;89.20
51863;DHT22;37900;52.996;6.278;2022-09-03T18:35:34;19.90;89.20
51863;DHT22;37900;52.996;6.278;2022-09-03T18:38:26;20.00;89.20
51863;DHT22;37900;52.996;6.278;2022-09-03T18:49:36;19.90;89.30
51863;DHT22;37900;52.996;6.278;2022-09-03T18:59:20;19.90;89.50
51863;DHT22;37900;52.996;6.278;2022-09-03T19:02:28;19.90;89.40
51863;DHT22;37900;52.996;6.278;2022-09-03T19:05:34;19.90;89.60
51863;DHT22;37900;52.996;6.278;2022-09-03T19:08:34;19.90;89.60
51863;DHT22;37900;52.996;6.278;2022-09-03T19:15:00;19.90;89.40
51863;DHT22;37900;52.996;6.278;2022-09-03T19:18:20;19.90;89.50
51863;DHT22;37900;52.996;6.278;2022-09-03T19:21:32;19.90;89.50
51863;DHT22;37900;52.996;6.278;2022-09-03T19:24:21;19.90;89.40
51863;DHT22;37900;52.996;6.278;2022-09-03T19:27:35;19.90;89.60
51863;DHT22;37900;52.996;6.278;2022-09-03T19:30:29;19.90;89.60
51863;DHT22;37900;52.996;6.278;2022-09-03T19:36:55;19.90;89.50
51863;DHT22;37900;52.996;6.278;2022-09-03T19:42:27;19.90;89.50
51863;DHT22;37900;52.996;6.278;2022-09-03T19:48:12;19.90;89.60
51863;DHT22;37900;52.996;6.278;2022-09-03T19:51:13;19.90;89.60
51863;DHT22;37900;52.996;6.278;2022-09-03T19:53:59;19.90;89.60
51863;DHT22;37900;52.996;6.278;2022-09-03T19:56:46;19.90;89.60
51863;DHT22;37900;52.996;6.278;2022-09-03T19:59:35;19.90;89.70
51863;DHT22;37900;52.996;6.278;2022-09-03T20:02:23;19.90;89.60
51863;DHT22;37900;52.996;6.278;2022-09-03T20:05:11;19.90;89.70
51863;DHT22;37900;52.996;6.278;2022-09-03T20:07:58;19.90;89.70
51863;DHT22;37900;52.996;6.278;2022-09-03T20:10:43;19.90;89.70
51863;DHT22;37900;52.996;6.278;2022-09-03T20:13:17;19.90;89.70
51863;DHT22;37900;52.996;6.278;2022-09-03T20:18:48;19.90;89.70
51863;DHT22;37900;52.996;6.278;2022-09-03T20:27:00;19.90;89.70
51863;DHT22;37900;52.996;6.278;2022-09-03T20:29:51;19.90;89.70
51863;DHT22;37900;52.996;6.278;2022-09-03T20:32:48;19.90;89.80
51863;DHT22;37900;52.996;6.278;2022-09-03T20:43:52;19.90;90.00
51863;DHT22;37900;52.996;6.278;2022-09-03T20:51:48;20.00;90.00
51863;DHT22;37900;52.996;6.278;2022-09-03T20:54:27;20.00;90.00
51863;DHT22;37900;52.996;6.278;2022-09-03T20:57:05;20.00;90.00
51863;DHT22;37900;52.996;6.278;2022-09-03T21:05:20;20.00;90.10
51863;DHT22;37900;52.996;6.278;2022-09-03T21:27:08;20.00;90.20
51863;DHT22;37900;52.996;6.278;2022-09-03T21:29:41;20.00;90.20
51863;DHT22;37900;52.996;6.278;2022-09-03T21:32:21;20.00;90.30
51863;DHT22;37900;52.996;6.278;2022-09-03T21:35:26;20.00;90.20
51863;DHT22;37900;52.996;6.278;2022-09-03T21:38:05;20.00;90.30
51863;DHT22;37900;52.996;6.278;2022-09-03T21:40:34;20.00;90.30
51863;DHT22;37900;52.996;6.278;2022-09-03T21:43:11;20.00;90.30
51863;DHT22;37900;52.996;6.278;2022-09-03T21:46:05;20.00;90.30
51863;DHT22;37900;52.996;6.278;2022-09-03T21:48:36;20.00;90.30
51863;DHT22;37900;52.996;6.278;2022-09-03T21:51:28;20.00;90.30
51863;DHT22;37900;52.996;6.278;2022-09-03T22:04:33;20.00;90.30
51863;DHT22;37900;52.996;6.278;2022-09-03T22:07:24;20.00;90.40
51863;DHT22;37900;52.996;6.278;2022-09-03T22:10:02;20.00;90.40
51863;DHT22;37900;52.996;6.278;2022-09-03T22:15:07;20.00;90.40
51863;DHT22;37900;52.996;6.278;2022-09-03T22:17:54;20.00;90.40
51863;DHT22;37900;52.996;6.278;2022-09-03T22:20:26;20.00;90.50